Time;durP1;ratioP1;P1;durP2;ratioP2;P2;SDS_P1;SDS_P2;PMS_P1;PMS_P2;Temp;Humidity;BMP_temperature;BMP_pressure;BME280_temperature;BME280_humidity;BME280_pressure;Samples;Min_cycle;Max_cycle;Signal;HPM_P1;HPM_P2
2023/10/14 00:01:26;;;;;;;7.38;6.30;;;23.80;99.80;;;;;;6216095;28;90455;-68
2023/10/14 00:04:30;;;;;;;6.95;5.82;;;23.80;99.80;;;;;;6219288;28;89321;-69
2023/10/14 00:07:32;;;;;;;6.70;5.88;;;23.80;99.70;;;;;;6221941;28;89086;-68
2023/10/14 00:10:35;;;;;;;7.80;5.95;;;23.80;99.50;;;;;;6212926;28;89372;-68
2023/10/14 00:13:42;;;;;;;7.25;6.10;;;23.80;99.40;;;;;;6221492;28;89226;-68
2023/10/14 00:16:49;;;;;;;6.45;5.72;;;23.80;99.40;;;;;;6222054;28;88705;-68
2023/10/14 00:19:55;;;;;;;6.90;6.10;;;23.80;99.40;;;;;;6221609;28;89095;-68
2023/10/14 00:22:57;;;;;;;7.15;5.50;;;23.80;99.40;;;;;;6210429;28;88731;-68
2023/10/14 00:26:00;;;;;;;7.00;5.72;;;23.80;99.30;;;;;;6214810;28;89041;-68
2023/10/14 00:29:19;;;;;;;7.25;5.53;;;23.80;99.40;;;;;;6208907;28;89200;-68
2023/10/14 00:32:22;;;;;;;6.43;5.72;;;23.80;99.40;;;;;;6214101;28;89985;-68
2023/10/14 00:35:27;;;;;;;7.82;6.07;;;23.80;99.40;;;;;;6232699;28;89087;-68
2023/10/14 00:38:34;;;;;;;7.18;5.82;;;23.80;99.40;;;;;;6209685;28;89026;-68
2023/10/14 00:41:36;;;;;;;6.18;5.40;;;23.80;99.20;;;;;;6209813;28;88940;-68
2023/10/14 00:44:39;;;;;;;6.57;5.55;;;23.80;99.30;;;;;;6220942;28;89124;-68
2023/10/14 00:47:44;;;;;;;6.53;5.60;;;23.80;99.20;;;;;;6221650;28;89287;-68
2023/10/14 00:50:50;;;;;;;6.45;5.80;;;23.80;99.20;;;;;;6225127;28;87983;-68
2023/10/14 00:53:52;;;;;;;7.78;5.70;;;23.80;99.20;;;;;;6217257;28;87048;-68
2023/10/14 00:57:01;;;;;;;7.85;5.80;;;23.80;99.20;;;;;;6224859;28;87955;-68
2023/10/14 01:00:09;;;;;;;6.82;5.60;;;23.80;99.10;;;;;;6217727;28;89002;-68
2023/10/14 01:03:15;;;;;;;6.82;5.78;;;23.80;99.00;;;;;;6226936;28;90055;-68
2023/10/14 01:06:23;;;;;;;9.50;5.85;;;23.80;98.90;;;;;;6218899;28;89076;-68
2023/10/14 01:09:33;;;;;;;5.97;5.35;;;23.80;98.80;;;;;;6215657;28;89041;-68
2023/10/14 01:12:40;;;;;;;5.95;5.32;;;23.80;98.70;;;;;;6208637;28;88030;-68
2023/10/14 01:15:45;;;;;;;5.90;5.30;;;23.80;98.70;;;;;;6229489;28;89285;-68
2023/10/14 01:18:48;;;;;;;5.95;5.35;;;23.70;98.70;;;;;;6227658;28;89422;-68
2023/10/14 01:21:52;;;;;;;7.60;6.00;;;23.70;98.80;;;;;;6219390;28;89031;-68
2023/10/14 01:24:56;;;;;;;5.72;5.00;;;23.70;98.80;;;;;;6209232;28;87309;-68
2023/10/14 01:27:59;;;;;;;5.78;5.18;;;23.80;98.80;;;;;;6220544;28;89062;-68
2023/10/14 01:31:30;;;;;;;6.00;5.40;;;23.80;98.80;;;;;;6231288;28;89124;-68
2023/10/14 01:34:42;;;;;;;7.65;5.30;;;23.80;98.90;;;;;;6217501;28;89958;-68
2023/10/14 01:37:45;;;;;;;6.93;5.25;;;23.70;98.80;;;;;;6222787;28;89024;-68
2023/10/14 01:40:49;;;;;;;6.95;5.53;;;23.70;98.90;;;;;;6214014;28;88006;-68
2023/10/14 01:43:52;;;;;;;6.47;5.10;;;23.70;98.80;;;;;;6222625;28;89025;-68
2023/10/14 01:46:55;;;;;;;7.25;5.55;;;23.70;98.90;;;;;;6207208;28;89298;-68
2023/10/14 01:49:58;;;;;;;6.80;5.88;;;23.70;98.90;;;;;;6213411;28;89104;-68
2023/10/14 01:53:08;;;;;;;6.60;5.47;;;23.80;98.70;;;;;;6215526;28;89115;-68
2023/10/14 01:56:12;;;;;;;6.63;5.38;;;23.70;98.70;;;;;;6222915;28;88356;-68
2023/10/14 01:59:16;;;;;;;6.57;5.30;;;23.70;98.60;;;;;;6217339;28;89126;-68
2023/10/14 02:02:20;;;;;;;8.45;5.70;;;23.70;98.70;;;;;;6207317;28;89338;-68
2023/10/14 02:05:25;;;;;;;6.70;5.57;;;23.70;98.60;;;;;;6206884;28;90098;-68
2023/10/14 02:08:28;;;;;;;5.75;5.15;;;23.70;98.60;;;;;;6219533;28;89072;-68
2023/10/14 02:11:34;;;;;;;5.93;5.32;;;23.80;98.70;;;;;;6215232;28;89216;-69
2023/10/14 02:14:36;;;;;;;6.57;5.35;;;23.70;98.70;;;;;;6226021;28;89019;-68
2023/10/14 02:17:39;;;;;;;6.40;5.22;;;23.70;98.60;;;;;;6219813;28;89097;-68
2023/10/14 02:20:56;;;;;;;6.13;5.50;;;23.70;98.70;;;;;;6207706;28;88887;-69
2023/10/14 02:24:00;;;;;;;5.45;4.95;;;23.70;98.70;;;;;;6213939;28;89127;-68
2023/10/14 02:27:10;;;;;;;5.78;4.72;;;23.70;98.80;;;;;;6211556;28;88388;-69
2023/10/14 02:30:13;;;;;;;5.18;4.68;;;23.70;98.60;;;;;;6218632;28;89245;-68
2023/10/14 02:33:15;;;;;;;6.35;5.75;;;23.70;98.60;;;;;;6215387;28;87565;-68
2023/10/14 02:36:18;;;;;;;6.95;5.68;;;23.70;98.60;;;;;;6219965;28;89983;-68
2023/10/14 02:39:25;;;;;;;6.03;5.13;;;23.70;98.70;;;;;;6219558;28;89052;-68
2023/10/14 02:42:29;;;;;;;7.22;5.40;;;23.70;98.60;;;;;;6216632;28;88991;-69
2023/10/14 02:45:38;;;;;;;5.80;5.20;;;23.70;98.50;;;;;;6212680;28;89115;-68
2023/10/14 02:48:55;;;;;;;6.25;5.50;;;23.70;98.30;;;;;;6213389;28;89114;-68
2023/10/14 02:52:01;;;;;;;6.72;5.35;;;23.70;98.40;;;;;;6213875;28;89235;-68
2023/10/14 02:58:21;;;;;;;6.78;5.13;;;23.70;98.30;;;;;;6220613;28;87918;-69
2023/10/14 03:01:31;;;;;;;8.18;5.95;;;23.70;98.30;;;;;;6219296;28;89228;-68
2023/10/14 03:04:39;;;;;;;7.18;5.43;;;23.70;98.60;;;;;;6225650;28;89202;-68
2023/10/14 03:07:50;;;;;;;6.40;5.30;;;23.70;98.20;;;;;;6206422;28;90178;-68
2023/10/14 03:10:55;;;;;;;5.32;4.82;;;23.60;98.20;;;;;;6215643;28;89175;-68
2023/10/14 03:13:58;;;;;;;5.90;4.95;;;23.70;98.20;;;;;;6221989;28;90031;-68
2023/10/14 03:17:00;;;;;;;6.22;5.63;;;23.70;98.30;;;;;;6212691;28;89047;-67
2023/10/14 03:20:34;;;;;;;5.72;5.00;;;23.70;98.20;;;;;;6225184;28;88941;-69
2023/10/14 03:23:28;;;;;;;6.47;5.53;;;23.70;98.20;;;;;;6218866;28;88712;-68
2023/10/14 03:26:32;;;;;;;9.00;6.13;;;23.70;98.20;;;;;;6222997;28;88957;-68
2023/10/14 03:29:37;;;;;;;6.22;5.10;;;23.70;98.20;;;;;;6224990;28;88377;-68
2023/10/14 03:32:42;;;;;;;5.70;5.10;;;23.60;98.20;;;;;;6221877;28;89068;-68
2023/10/14 03:35:54;;;;;;;5.95;5.35;;;23.70;98.30;;;;;;6218694;28;88018;-68
2023/10/14 03:38:58;;;;;;;5.78;5.28;;;23.60;98.20;;;;;;6208463;28;90595;-68
2023/10/14 03:42:09;;;;;;;6.75;5.45;;;23.60;98.10;;;;;;6220692;28;89126;-68
2023/10/14 03:45:20;;;;;;;5.70;5.20;;;23.70;98.10;;;;;;6214389;28;89169;-68
2023/10/14 03:48:27;;;;;;;6.20;5.38;;;23.70;97.90;;;;;;6214351;28;89053;-68
2023/10/14 03:51:28;;;;;;;6.53;5.65;;;23.60;97.90;;;;;;6211525;28;89016;-68
2023/10/14 03:54:41;;;;;;;5.88;5.20;;;23.60;97.90;;;;;;6219894;28;89126;-67
2023/10/14 03:57:43;;;;;;;6.57;5.32;;;23.60;97.90;;;;;;6213785;28;89191;-68
2023/10/14 04:00:48;;;;;;;7.80;6.03;;;23.60;97.80;;;;;;6210313;28;88298;-68
2023/10/14 04:03:53;;;;;;;7.18;5.70;;;23.70;97.90;;;;;;6228738;28;89217;-68
2023/10/14 04:10:22;;;;;;;7.00;5.60;;;23.60;97.80;;;;;;6222352;28;89735;-68
2023/10/14 04:13:25;;;;;;;6.03;5.50;;;23.60;97.70;;;;;;6217395;28;89208;-68
2023/10/14 04:16:37;;;;;;;6.18;5.57;;;23.60;97.70;;;;;;6224415;28;88893;-67
2023/10/14 04:19:46;;;;;;;6.05;5.45;;;23.60;97.60;;;;;;6216467;28;89006;-68
2023/10/14 04:22:51;;;;;;;6.13;5.53;;;23.60;97.60;;;;;;6222033;28;89204;-68
2023/10/14 04:26:02;;;;;;;6.03;5.43;;;23.60;97.70;;;;;;6214240;28;89123;-68
2023/10/14 04:29:12;;;;;;;6.82;5.72;;;23.60;97.60;;;;;;6216872;28;89090;-68
2023/10/14 04:32:17;;;;;;;6.97;5.63;;;23.60;97.60;;;;;;6233149;28;88321;-68
2023/10/14 04:35:22;;;;;;;6.70;5.70;;;23.60;97.60;;;;;;6220649;28;89410;-68
2023/10/14 04:38:37;;;;;;;6.35;5.60;;;23.60;97.40;;;;;;6233234;28;89202;-68
2023/10/14 04:41:47;;;;;;;7.00;5.60;;;23.60;97.40;;;;;;6222183;28;90344;-68
2023/10/14 04:44:56;;;;;;;6.82;5.72;;;23.60;97.30;;;;;;6209350;28;89276;-68
2023/10/14 04:48:00;;;;;;;6.40;5.50;;;23.60;97.40;;;;;;6221902;28;89041;-68
2023/10/14 04:51:07;;;;;;;6.60;5.90;;;23.60;97.40;;;;;;6217391;28;89340;-68
2023/10/14 04:54:09;;;;;;;6.05;5.45;;;23.60;97.40;;;;;;6225702;28;88248;-68
2023/10/14 04:57:21;;;;;;;7.32;5.88;;;23.60;97.40;;;;;;6221303;28;89184;-68
2023/10/14 05:00:32;;;;;;;7.18;5.72;;;23.60;97.40;;;;;;6225955;28;89235;-68
2023/10/14 05:03:35;;;;;;;7.97;5.90;;;23.60;97.40;;;;;;6226009;28;88514;-68
2023/10/14 05:06:41;;;;;;;6.47;5.70;;;23.60;97.30;;;;;;6226010;28;88072;-68
2023/10/14 05:09:49;;;;;;;7.72;5.70;;;23.60;97.30;;;;;;6226231;28;89129;-68
2023/10/14 05:12:52;;;;;;;6.38;5.78;;;23.60;97.30;;;;;;6215421;28;90117;-68
2023/10/14 05:16:03;;;;;;;5.72;5.15;;;23.60;97.40;;;;;;6227731;28;89062;-68
2023/10/14 05:19:06;;;;;;;7.90;6.05;;;23.50;97.30;;;;;;6209647;28;88105;-68
2023/10/14 05:22:13;;;;;;;7.85;6.35;;;23.60;97.30;;;;;;6209324;28;88913;-68
2023/10/14 05:25:27;;;;;;;6.72;5.97;;;23.60;97.20;;;;;;6218930;28;89190;-68
2023/10/14 05:28:35;;;;;;;6.65;5.90;;;23.60;97.20;;;;;;6222025;28;89449;-68
2023/10/14 05:31:37;;;;;;;8.00;6.00;;;23.60;97.20;;;;;;6219384;28;89250;-68
2023/10/14 05:34:43;;;;;;;6.30;5.55;;;23.60;97.10;;;;;;6221514;28;88556;-68
2023/10/14 05:37:47;;;;;;;6.03;5.43;;;23.60;97.20;;;;;;6214070;28;89078;-68
2023/10/14 05:40:55;;;;;;;5.88;5.35;;;23.50;97.10;;;;;;6225913;28;89240;-68
2023/10/14 05:43:57;;;;;;;6.10;5.43;;;23.60;97.20;;;;;;6225449;28;90243;-68
2023/10/14 05:46:59;;;;;;;8.57;6.28;;;23.50;97.20;;;;;;6206992;28;87953;-68
2023/10/14 05:50:06;;;;;;;6.40;5.68;;;23.60;97.20;;;;;;6230631;28;89073;-68
2023/10/14 05:53:08;;;;;;;7.10;5.75;;;23.50;97.10;;;;;;6215959;28;89067;-68
2023/10/14 05:56:14;;;;;;;6.88;5.85;;;23.60;97.20;;;;;;6215966;28;87842;-68
2023/10/14 05:59:16;;;;;;;7.63;6.03;;;23.60;97.30;;;;;;6230518;28;89209;-68
2023/10/14 06:02:19;;;;;;;8.70;6.00;;;23.50;97.20;;;;;;6226339;28;89017;-68
2023/10/14 06:05:24;;;;;;;6.35;5.75;;;23.60;97.30;;;;;;6222644;28;88397;-68
2023/10/14 06:08:26;;;;;;;6.65;5.82;;;23.60;97.30;;;;;;6216532;28;89051;-68
2023/10/14 06:11:28;;;;;;;6.75;5.60;;;23.50;97.40;;;;;;6223168;28;88977;-68
2023/10/14 06:14:31;;;;;;;6.38;5.75;;;23.60;97.40;;;;;;6225408;28;90105;-68
2023/10/14 06:17:38;;;;;;;6.38;5.78;;;23.60;97.40;;;;;;6218406;28;87850;-68
2023/10/14 06:20:42;;;;;;;7.43;5.80;;;23.60;97.40;;;;;;6216718;28;89174;-68
2023/10/14 06:23:47;;;;;;;8.45;6.07;;;23.60;97.40;;;;;;6221300;28;89179;-68
2023/10/14 06:26:53;;;;;;;6.57;5.82;;;23.60;97.40;;;;;;6230709;28;89100;-68
2023/10/14 06:29:55;;;;;;;6.80;5.22;;;23.60;97.50;;;;;;6232415;28;89135;-68
2023/10/14 06:33:03;;;;;;;6.78;6.07;;;23.60;97.50;;;;;;6218215;28;88097;-68
2023/10/14 06:36:10;;;;;;;6.75;5.90;;;23.60;97.50;;;;;;6207596;28;88182;-68
2023/10/14 06:39:14;;;;;;;7.80;5.80;;;23.50;97.50;;;;;;6210099;28;88456;-68
2023/10/14 06:42:19;;;;;;;7.50;5.82;;;23.60;97.60;;;;;;6218539;28;89119;-68
2023/10/14 06:45:22;;;;;;;9.15;6.15;;;23.60;97.60;;;;;;6209946;28;90416;-68
2023/10/14 06:48:24;;;;;;;6.97;5.78;;;23.60;97.70;;;;;;6213577;28;89011;-68
2023/10/14 06:51:27;;;;;;;6.25;5.65;;;23.60;97.80;;;;;;6207154;28;89006;-68
2023/10/14 06:54:30;;;;;;;6.68;5.80;;;23.50;97.80;;;;;;6220423;28;88968;-68
2023/10/14 06:57:32;;;;;;;7.60;5.57;;;23.50;97.80;;;;;;6221794;28;89092;-68
2023/10/14 07:00:37;;;;;;;6.60;5.90;;;23.50;97.80;;;;;;6229706;28;89018;-68
2023/10/14 07:03:39;;;;;;;5.90;5.40;;;23.50;97.90;;;;;;6224047;28;89025;-68
2023/10/14 07:06:47;;;;;;;6.55;5.72;;;23.50;97.90;;;;;;6207480;28;87239;-68
2023/10/14 07:09:50;;;;;;;6.43;5.43;;;23.50;97.80;;;;;;6219034;28;89614;-68
2023/10/14 07:12:52;;;;;;;7.20;5.50;;;23.60;97.80;;;;;;6210460;28;89592;-68
2023/10/14 07:15:54;;;;;;;6.18;5.57;;;23.50;97.70;;;;;;6214035;28;90240;-68
2023/10/14 07:18:56;;;;;;;7.03;5.82;;;23.60;97.60;;;;;;6213158;28;88892;-68
2023/10/14 07:22:00;;;;;;;5.75;5.18;;;23.60;97.50;;;;;;6207058;28;89140;-69
2023/10/14 07:25:03;;;;;;;6.38;5.63;;;23.50;97.50;;;;;;6218319;28;89056;-68
2023/10/14 07:28:08;;;;;;;6.38;5.38;;;23.60;97.50;;;;;;6216522;28;89153;-68
2023/10/14 07:31:11;;;;;;;6.22;5.10;;;23.60;97.50;;;;;;6220049;28;89036;-68
2023/10/14 07:34:16;;;;;;;6.15;5.43;;;23.50;97.40;;;;;;6217521;28;88067;-68
2023/10/14 07:37:20;;;;;;;6.32;5.60;;;23.60;97.40;;;;;;6222304;28;88297;-68
2023/10/14 07:40:27;;;;;;;5.93;5.32;;;23.50;97.30;;;;;;6204571;28;89550;-68
2023/10/14 07:43:29;;;;;;;5.72;5.20;;;23.50;97.20;;;;;;6218053;28;87867;-68
2023/10/14 07:46:31;;;;;;;6.35;5.45;;;23.50;97.20;;;;;;6206890;28;89958;-68
2023/10/14 07:49:33;;;;;;;6.20;5.25;;;23.50;97.20;;;;;;6216386;28;88033;-68
2023/10/14 07:52:37;;;;;;;5.80;5.13;;;23.50;97.20;;;;;;6206121;28;89486;-68
2023/10/14 07:55:40;;;;;;;6.15;5.05;;;23.50;97.10;;;;;;6226659;28;89116;-68
2023/10/14 07:58:41;;;;;;;6.10;5.38;;;23.50;97.20;;;;;;6227223;28;88955;-68
2023/10/14 08:01:45;;;;;;;6.18;5.32;;;23.60;97.20;;;;;;6226194;28;88988;-68
2023/10/14 08:04:47;;;;;;;5.40;4.75;;;23.50;97.00;;;;;;6218199;28;89147;-68
2023/10/14 08:07:53;;;;;;;5.25;4.75;;;23.50;97.00;;;;;;6219031;28;88465;-68
2023/10/14 08:10:57;;;;;;;7.65;5.13;;;23.50;96.90;;;;;;6226956;28;89480;-68
2023/10/14 08:13:59;;;;;;;6.65;5.55;;;23.60;97.00;;;;;;6230046;28;88012;-68
2023/10/14 08:17:01;;;;;;;6.93;5.38;;;23.50;96.90;;;;;;6216592;28;91638;-68
2023/10/14 08:20:12;;;;;;;5.18;4.68;;;23.50;96.90;;;;;;6218061;28;89471;-69
2023/10/14 08:23:15;;;;;;;5.85;5.03;;;23.50;96.90;;;;;;6214706;28;89097;-69
2023/10/14 08:26:18;;;;;;;6.38;4.90;;;23.60;96.90;;;;;;6223948;28;89467;-68
2023/10/14 08:29:20;;;;;;;5.57;5.07;;;23.60;96.80;;;;;;6220917;28;89078;-68
2023/10/14 08:32:23;;;;;;;5.43;4.93;;;23.50;96.80;;;;;;6226885;28;89097;-68
2023/10/14 08:35:27;;;;;;;5.88;4.85;;;23.50;96.80;;;;;;6216280;28;88905;-68
2023/10/14 08:38:30;;;;;;;5.82;5.00;;;23.50;96.70;;;;;;6223787;28;88276;-68
2023/10/14 08:41:34;;;;;;;5.55;4.95;;;23.50;96.70;;;;;;6227042;28;89028;-68
2023/10/14 08:44:42;;;;;;;7.10;5.30;;;23.50;96.70;;;;;;6211090;28;88958;-68
2023/10/14 08:47:50;;;;;;;5.40;4.72;;;23.50;96.60;;;;;;6215599;28;88920;-68
2023/10/14 08:50:56;;;;;;;5.60;5.00;;;23.50;96.50;;;;;;6213452;28;89148;-68
2023/10/14 08:54:06;;;;;;;8.27;4.95;;;23.50;96.50;;;;;;6213390;28;89212;-68
2023/10/14 08:57:09;;;;;;;6.15;5.18;;;23.50;96.40;;;;;;6232360;28;88720;-68
2023/10/14 09:00:12;;;;;;;5.78;5.15;;;23.50;96.30;;;;;;6233432;28;89084;-68
2023/10/14 09:03:14;;;;;;;5.45;4.95;;;23.50;96.20;;;;;;6230440;28;88878;-68
2023/10/14 09:06:18;;;;;;;5.03;4.45;;;23.50;96.20;;;;;;6225897;28;89000;-69
2023/10/14 09:09:23;;;;;;;5.45;4.95;;;23.60;96.20;;;;;;6223424;28;86319;-68
2023/10/14 09:12:25;;;;;;;5.45;4.63;;;23.60;96.20;;;;;;6215934;28;89194;-68
2023/10/14 09:15:29;;;;;;;6.57;4.88;;;23.50;96.20;;;;;;6211408;28;89046;-68
2023/10/14 09:18:32;;;;;;;6.55;5.00;;;23.60;96.20;;;;;;6230922;28;89924;-68
2023/10/14 09:21:43;;;;;;;5.55;4.78;;;23.50;96.10;;;;;;6221707;28;89564;-69
2023/10/14 09:24:49;;;;;;;5.50;4.70;;;23.50;96.00;;;;;;6218474;28;89004;-68
2023/10/14 09:27:51;;;;;;;5.78;4.32;;;23.50;96.00;;;;;;6209024;28;90075;-68
2023/10/14 09:30:56;;;;;;;5.07;4.57;;;23.50;96.00;;;;;;6216408;28;89443;-68
2023/10/14 09:33:58;;;;;;;5.05;4.45;;;23.50;95.80;;;;;;6217233;28;89448;-68
2023/10/14 09:37:10;;;;;;;6.93;4.70;;;23.50;95.80;;;;;;6210531;28;89114;-68
2023/10/14 09:40:14;;;;;;;7.35;4.60;;;23.50;95.70;;;;;;6212564;28;88509;-69
2023/10/14 09:43:18;;;;;;;5.78;4.47;;;23.50;95.70;;;;;;6230955;28;89052;-69
2023/10/14 09:46:20;;;;;;;6.45;4.40;;;23.50;95.70;;;;;;6231125;28;89082;-68
2023/10/14 09:49:24;;;;;;;6.30;4.80;;;23.50;95.70;;;;;;6215787;28;89905;-69
2023/10/14 09:52:26;;;;;;;4.97;4.47;;;23.50;95.70;;;;;;6212217;28;89063;-68
2023/10/14 09:55:30;;;;;;;5.78;4.53;;;23.50;95.60;;;;;;6225132;28;89114;-68
2023/10/14 09:58:34;;;;;;;5.20;4.03;;;23.50;95.60;;;;;;6223376;28;89042;-68
2023/10/14 10:01:36;;;;;;;5.63;4.22;;;23.50;95.60;;;;;;6217441;28;88221;-68
2023/10/14 10:04:42;;;;;;;5.10;4.60;;;23.50;95.60;;;;;;6216268;28;87994;-68
2023/10/14 10:07:56;;;;;;;5.68;4.70;;;23.50;95.60;;;;;;6219081;28;90976;-68
2023/10/14 10:11:01;;;;;;;6.13;4.32;;;23.50;95.60;;;;;;6208849;28;88295;-68
2023/10/14 10:14:10;;;;;;;5.65;4.75;;;23.50;95.60;;;;;;6207852;28;89483;-68
2023/10/14 10:17:13;;;;;;;6.07;4.20;;;23.50;95.70;;;;;;6218922;28;87771;-68
2023/10/14 10:20:16;;;;;;;4.93;4.40;;;23.50;95.70;;;;;;6230319;28;90047;-69
2023/10/14 10:23:18;;;;;;;4.90;4.40;;;23.50;95.70;;;;;;6217206;28;89014;-68
2023/10/14 10:26:23;;;;;;;6.05;4.30;;;23.50;95.70;;;;;;6218596;28;89115;-68
2023/10/14 10:29:27;;;;;;;4.65;4.13;;;23.50;95.80;;;;;;6220690;28;89288;-68
2023/10/14 10:32:33;;;;;;;4.65;3.95;;;23.50;95.70;;;;;;6212870;28;88965;-68
2023/10/14 10:35:56;;;;;;;5.22;4.15;;;23.50;95.70;;;;;;6214660;28;89056;-68
2023/10/14 10:39:15;;;;;;;4.50;4.00;;;23.50;95.90;;;;;;6207318;28;89227;-68
2023/10/14 10:42:19;;;;;;;5.68;4.15;;;23.50;95.80;;;;;;6215785;28;88627;-68
2023/10/14 10:45:22;;;;;;;5.18;4.20;;;23.50;95.80;;;;;;6216487;28;89231;-68
2023/10/14 10:48:25;;;;;;;4.82;4.25;;;23.50;95.80;;;;;;6226048;28;89006;-68
2023/10/14 10:51:31;;;;;;;6.32;4.20;;;23.50;95.80;;;;;;6223630;28;88645;-68
2023/10/14 10:54:33;;;;;;;5.25;4.20;;;23.50;95.80;;;;;;6230896;28;89036;-68
2023/10/14 10:57:37;;;;;;;5.43;3.95;;;23.50;95.80;;;;;;6229792;28;89034;-68
2023/10/14 11:00:41;;;;;;;4.82;4.32;;;23.50;95.90;;;;;;6219764;28;89312;-69
2023/10/14 11:03:45;;;;;;;4.40;3.78;;;23.50;95.80;;;;;;6227345;28;89067;-68
2023/10/14 11:06:47;;;;;;;5.88;4.38;;;23.50;95.90;;;;;;6216544;28;88010;-68
2023/10/14 11:09:49;;;;;;;4.38;3.63;;;23.50;95.90;;;;;;6221643;28;89323;-69
2023/10/14 11:12:55;;;;;;;4.30;3.90;;;23.50;95.80;;;;;;6211105;28;88911;-68
2023/10/14 11:15:57;;;;;;;4.28;3.88;;;23.50;95.90;;;;;;6222397;28;89466;-68
2023/10/14 11:18:59;;;;;;;5.43;4.18;;;23.50;95.90;;;;;;6215932;28;88963;-68
2023/10/14 11:22:03;;;;;;;4.45;4.00;;;23.50;95.90;;;;;;6228513;28;89895;-69
2023/10/14 11:25:07;;;;;;;6.70;4.32;;;23.50;96.00;;;;;;6217131;28;89100;-68
2023/10/14 11:28:14;;;;;;;4.68;4.20;;;23.50;96.00;;;;;;6217938;28;89848;-68
2023/10/14 11:31:16;;;;;;;4.57;4.07;;;23.50;96.00;;;;;;6218390;28;89266;-68
2023/10/14 11:34:18;;;;;;;4.85;4.00;;;23.50;96.00;;;;;;6217342;28;89087;-68
2023/10/14 11:37:20;;;;;;;4.60;4.07;;;23.50;96.00;;;;;;6217873;28;89094;-68
2023/10/14 11:40:25;;;;;;;4.50;3.88;;;23.50;96.00;;;;;;6215731;28;89382;-68
2023/10/14 11:43:30;;;;;;;4.45;3.85;;;23.50;96.00;;;;;;6217504;28;87221;-68
2023/10/14 11:46:38;;;;;;;4.32;3.92;;;23.50;96.00;;;;;;6218485;28;89186;-68
2023/10/14 11:49:41;;;;;;;5.15;4.10;;;23.50;96.10;;;;;;6221398;28;89051;-68
2023/10/14 11:52:44;;;;;;;4.40;4.00;;;23.50;96.10;;;;;;6210698;28;89901;-69
2023/10/14 11:55:46;;;;;;;5.00;4.18;;;23.50;96.20;;;;;;6211303;28;89054;-69
2023/10/14 11:58:50;;;;;;;4.55;4.07;;;23.50;96.20;;;;;;6216261;28;87977;-69
2023/10/14 12:01:52;;;;;;;4.35;3.95;;;23.50;96.20;;;;;;6224972;28;89115;-68
2023/10/14 12:04:54;;;;;;;4.10;3.67;;;23.50;96.20;;;;;;6227766;28;89347;-68
2023/10/14 12:07:56;;;;;;;4.38;3.45;;;23.40;96.20;;;;;;6217869;28;89347;-68
2023/10/14 12:10:58;;;;;;;4.32;3.80;;;23.50;96.20;;;;;;6222020;28;89153;-68
2023/10/14 12:14:03;;;;;;;4.57;3.80;;;23.40;96.20;;;;;;6213446;28;87138;-68
2023/10/14 12:17:06;;;;;;;5.75;4.30;;;23.40;96.30;;;;;;6228661;28;89010;-68
2023/10/14 12:20:10;;;;;;;4.90;4.03;;;23.50;96.30;;;;;;6210568;28;89057;-68
2023/10/14 12:23:12;;;;;;;4.97;4.10;;;23.40;96.20;;;;;;6230901;28;89846;-69
2023/10/14 12:26:14;;;;;;;5.10;4.03;;;23.50;96.30;;;;;;6210232;28;89026;-68
2023/10/14 12:29:20;;;;;;;4.28;3.72;;;23.50;96.20;;;;;;6221081;28;89483;-68
2023/10/14 12:32:22;;;;;;;5.70;3.88;;;23.50;96.20;;;;;;6230554;28;89120;-68
2023/10/14 12:35:28;;;;;;;4.20;3.80;;;23.50;96.10;;;;;;6221080;28;88826;-68
2023/10/14 12:38:30;;;;;;;4.95;4.10;;;23.50;96.10;;;;;;6215382;28;89038;-68
2023/10/14 12:41:33;;;;;;;4.25;3.67;;;23.40;96.10;;;;;;6216679;28;89405;-68
2023/10/14 12:44:36;;;;;;;4.60;3.75;;;23.50;96.10;;;;;;6214636;28;87647;-68
2023/10/14 12:47:44;;;;;;;5.75;4.05;;;23.50;96.10;;;;;;6210729;28;89106;-69
2023/10/14 12:50:47;;;;;;;4.43;3.97;;;23.50;96.20;;;;;;6225632;28;89034;-68
2023/10/14 12:53:49;;;;;;;5.88;4.10;;;23.50;96.10;;;;;;6231761;28;88862;-68
2023/10/14 12:56:51;;;;;;;5.05;3.55;;;23.50;96.20;;;;;;6229235;28;89068;-68
2023/10/14 12:59:54;;;;;;;5.68;4.13;;;23.40;96.10;;;;;;6213349;28;89067;-68
2023/10/14 13:02:57;;;;;;;4.57;4.18;;;23.50;96.10;;;;;;6224956;28;89108;-68
2023/10/14 13:05:59;;;;;;;6.00;4.10;;;23.40;96.10;;;;;;6217014;28;89235;-68
2023/10/14 13:09:01;;;;;;;4.95;3.97;;;23.40;96.10;;;;;;6222897;28;89219;-68
2023/10/14 13:12:15;;;;;;;4.57;3.70;;;23.50;96.10;;;;;;6220668;28;89115;-68
2023/10/14 13:15:28;;;;;;;4.65;4.13;;;23.50;96.20;;;;;;6221852;28;88551;-68
2023/10/14 13:18:30;;;;;;;6.43;4.30;;;23.40;96.10;;;;;;6222235;28;89232;-68
2023/10/14 13:21:34;;;;;;;3.95;3.58;;;23.50;96.20;;;;;;6222539;28;89140;-69
2023/10/14 13:24:36;;;;;;;4.22;3.78;;;23.40;96.10;;;;;;6217214;28;90210;-68
2023/10/14 13:27:38;;;;;;;4.75;3.63;;;23.40;96.10;;;;;;6223453;28;89572;-69
2023/10/14 13:30:45;;;;;;;5.32;4.18;;;23.40;96.10;;;;;;6224255;28;88990;-68
2023/10/14 13:33:47;;;;;;;4.80;3.92;;;23.40;96.10;;;;;;6233253;28;89368;-69
2023/10/14 13:36:49;;;;;;;4.97;4.10;;;23.40;96.10;;;;;;6222857;28;89020;-68
2023/10/14 13:39:51;;;;;;;6.05;4.03;;;23.50;96.10;;;;;;6223602;28;88993;-68
2023/10/14 13:42:54;;;;;;;4.90;4.03;;;23.50;96.10;;;;;;6218026;28;89008;-68
2023/10/14 13:45:58;;;;;;;5.20;3.92;;;23.40;96.10;;;;;;6214246;28;88405;-68
2023/10/14 13:49:00;;;;;;;4.20;3.80;;;23.40;96.10;;;;;;6207465;28;89866;-68
2023/10/14 13:52:03;;;;;;;5.18;4.10;;;23.50;96.10;;;;;;6213461;28;89099;-68
2023/10/14 13:55:06;;;;;;;4.70;3.83;;;23.50;96.20;;;;;;6222697;28;90076;-68
2023/10/14 13:58:11;;;;;;;5.28;4.10;;;23.50;96.20;;;;;;6220296;28;89006;-69
2023/10/14 14:01:17;;;;;;;6.10;4.18;;;23.40;96.20;;;;;;6209574;28;88923;-68
2023/10/14 14:04:20;;;;;;;5.13;3.90;;;23.40;96.10;;;;;;6214786;28;89236;-69
2023/10/14 14:07:24;;;;;;;4.72;3.80;;;23.40;96.10;;;;;;6222519;28;89473;-68
2023/10/14 14:10:26;;;;;;;5.03;3.95;;;23.40;96.10;;;;;;6226463;28;89035;-69
2023/10/14 14:13:29;;;;;;;5.30;3.78;;;23.40;96.10;;;;;;6218141;28;89428;-69
2023/10/14 14:16:36;;;;;;;4.43;3.90;;;23.40;96.10;;;;;;6218340;28;88807;-68
2023/10/14 14:19:39;;;;;;;4.00;3.60;;;23.40;96.00;;;;;;6209413;28;89898;-69
2023/10/14 14:22:42;;;;;;;4.40;3.95;;;23.40;96.00;;;;;;6217558;28;89131;-69
2023/10/14 14:25:45;;;;;;;4.68;3.83;;;23.50;96.00;;;;;;6206642;28;90162;-69
2023/10/14 14:28:49;;;;;;;4.05;3.60;;;23.40;96.00;;;;;;6230994;28;89048;-68
2023/10/14 14:31:52;;;;;;;3.80;3.38;;;23.50;96.10;;;;;;6223353;28;89874;-69
2023/10/14 14:34:55;;;;;;;6.35;4.47;;;23.40;96.00;;;;;;6208105;28;89443;-69
2023/10/14 14:37:58;;;;;;;4.85;3.80;;;23.40;96.00;;;;;;6213541;28;89215;-69
2023/10/14 14:41:01;;;;;;;6.03;4.32;;;23.40;96.00;;;;;;6217438;28;90547;-69
2023/10/14 14:44:08;;;;;;;5.93;3.83;;;23.40;96.00;;;;;;6220241;28;88781;-69
2023/10/14 14:47:14;;;;;;;4.07;3.45;;;23.40;96.10;;;;;;6218436;28;88382;-69
2023/10/14 14:50:16;;;;;;;7.00;4.57;;;23.40;96.00;;;;;;6228587;28;89107;-69
2023/10/14 14:53:19;;;;;;;6.10;4.25;;;23.40;96.00;;;;;;6217766;28;89123;-69
2023/10/14 14:56:21;;;;;;;4.65;3.95;;;23.40;96.00;;;;;;6226875;28;89992;-69
2023/10/14 14:59:25;;;;;;;4.93;4.18;;;23.40;96.00;;;;;;6219447;28;89093;-68
2023/10/14 15:02:28;;;;;;;4.60;3.75;;;23.40;96.10;;;;;;6228227;28;89087;-69
2023/10/14 15:05:31;;;;;;;4.50;3.80;;;23.40;96.10;;;;;;6218068;28;89032;-69
2023/10/14 15:08:33;;;;;;;4.93;3.85;;;23.40;96.00;;;;;;6228403;28;89042;-69
2023/10/14 15:11:35;;;;;;;4.85;3.70;;;23.40;96.00;;;;;;6215450;28;90657;-69
2023/10/14 15:14:38;;;;;;;4.45;3.58;;;23.40;96.00;;;;;;6211932;28;89034;-69
2023/10/14 15:17:42;;;;;;;4.57;3.70;;;23.40;96.00;;;;;;6219918;28;88786;-68
2023/10/14 15:20:45;;;;;;;4.03;3.58;;;23.40;96.00;;;;;;6213498;28;89144;-69
2023/10/14 15:23:47;;;;;;;6.00;3.92;;;23.40;96.00;;;;;;6213612;28;89011;-68
2023/10/14 15:26:49;;;;;;;4.57;3.47;;;23.40;96.00;;;;;;6211844;28;89988;-69
2023/10/14 15:29:51;;;;;;;5.32;3.53;;;23.40;96.00;;;;;;6207197;28;89036;-68
2023/10/14 15:32:54;;;;;;;4.10;3.70;;;23.40;96.00;;;;;;6221119;28;89130;-69
2023/10/14 15:36:05;;;;;;;4.50;3.78;;;23.40;96.00;;;;;;6209847;28;89041;-68
2023/10/14 15:39:15;;;;;;;4.30;3.50;;;23.40;96.10;;;;;;6218167;28;89109;-68
2023/10/14 15:42:17;;;;;;;4.47;3.40;;;23.40;96.00;;;;;;6231799;28;89817;-68
2023/10/14 15:45:25;;;;;;;3.90;3.50;;;23.40;96.00;;;;;;6232187;28;89140;-69
2023/10/14 15:48:31;;;;;;;3.70;3.33;;;23.40;96.10;;;;;;6214832;28;88334;-68
2023/10/14 15:51:33;;;;;;;5.45;3.88;;;23.40;96.00;;;;;;6222351;28;89292;-68
2023/10/14 15:54:35;;;;;;;4.75;3.95;;;23.40;96.10;;;;;;6213039;28;89025;-69
2023/10/14 15:57:37;;;;;;;5.40;3.50;;;23.40;96.00;;;;;;6221355;28;89967;-69
2023/10/14 16:00:47;;;;;;;4.15;3.60;;;23.40;96.40;;;;;;6211305;28;89160;-68
2023/10/14 16:03:50;;;;;;;4.10;3.70;;;23.40;96.00;;;;;;6231058;28;89115;-68
2023/10/14 16:06:52;;;;;;;3.92;3.53;;;23.40;96.00;;;;;;6219099;28;89007;-68
2023/10/14 16:09:54;;;;;;;5.93;3.80;;;23.40;96.00;;;;;;6231269;28;90216;-69